Time,TemperatureF,DewpointF,PressureIn,WindDirection,WindDirectionDegrees,WindSpeedMPH,WindSpeedGustMPH,Humidity,HourlyPrecipIn,Conditions,Clouds,dailyrainin,SoftwareType,DateUTC
2013-03-29 00:02:00,44.0,29.0,-100.00,West,263,9.0,14.0,56,-99.99,,,-99.99,,2013-03-29 07:02:00,
2013-03-29 00:22:00,44.0,29.0,-100.00,West,264,8.0,13.0,55,-99.99,,,-99.99,,2013-03-29 07:22:00,
2013-03-29 00:32:00,44.0,29.0,-100.00,West,264,8.0,13.0,55,-99.99,,,-99.99,,2013-03-29 07:32:00,
2013-03-29 00:42:00,43.0,28.0,-100.00,WSW,258,8.0,13.0,54,-99.99,,,-99.99,,2013-03-29 07:42:00,
2013-03-29 00:52:00,43.0,27.0,-100.00,West,268,8.0,13.0,52,-99.99,,,-99.99,,2013-03-29 07:52:00,
2013-03-29 01:02:00,44.0,27.0,-100.00,West,268,8.0,12.0,51,-99.99,,,-99.99,,2013-03-29 08:02:00,
2013-03-29 01:12:00,44.0,28.0,-100.00,WSW,258,8.0,12.0,52,-99.99,,,-99.99,,2013-03-29 08:12:00,
2013-03-29 01:22:00,43.0,26.0,-100.00,WSW,258,8.0,13.0,51,-99.99,,,-99.99,,2013-03-29 08:22:00,
2013-03-29 01:32:00,43.0,26.0,-100.00,West,260,8.0,13.0,51,-99.99,,,-99.99,,2013-03-29 08:32:00,
2013-03-29 01:42:00,43.0,26.0,-100.00,West,267,7.0,12.0,50,-99.99,,,-99.99,,2013-03-29 08:42:00,
2013-03-29 01:52:00,43.0,26.0,-100.00,WSW,258,6.0,13.0,50,-99.99,,,-99.99,,2013-03-29 08:52:00,
2013-03-29 02:02:00,44.0,27.0,-100.00,WSW,254,5.0,12.0,50,-99.99,,,-99.99,,2013-03-29 09:02:00,
2013-03-29 02:12:00,44.0,27.0,-100.00,WSW,256,7.0,13.0,50,-99.99,,,-99.99,,2013-03-29 09:12:00,
2013-03-29 02:22:00,42.0,27.0,-100.00,SW,226,4.0,8.0,55,-99.99,,,-99.99,,2013-03-29 09:22:00,
2013-03-29 02:32:00,39.0,29.0,-100.00,SSE,164,3.0,6.0,66,-99.99,,,-99.99,,2013-03-29 09:32:00,
2013-03-29 02:42:00,37.0,28.0,-100.00,SE,145,2.0,4.0,71,-99.99,,,-99.99,,2013-03-29 09:42:00,
2013-03-29 02:52:00,36.0,28.0,-100.00,WSW,240,3.0,7.0,73,-99.99,,,-99.99,,2013-03-29 09:52:00,
2013-03-29 03:02:00,36.0,29.0,-100.00,SW,216,1.0,3.0,74,-99.99,,,-99.99,,2013-03-29 10:02:00,
2013-03-29 03:12:00,36.0,29.0,-100.00,SW,219,2.0,5.0,75,-99.99,,,-99.99,,2013-03-29 10:12:00,
2013-03-29 03:22:00,39.0,28.0,-100.00,WSW,251,7.0,12.0,64,-99.99,,,-99.99,,2013-03-29 10:22:00,
2013-03-29 03:33:00,41.0,29.0,-100.00,WSW,258,5.0,10.0,63,-99.99,,,-99.99,,2013-03-29 10:33:00,
2013-03-29 03:42:00,41.0,30.0,-100.00,West,268,3.0,5.0,64,-99.99,,,-99.99,,2013-03-29 10:42:00,
2013-03-29 03:52:00,40.0,31.0,-100.00,NE,37,2.0,3.0,69,-99.99,,,-99.99,,2013-03-29 10:52:00,
2013-03-29 04:03:00,39.0,30.0,-100.00,NNW,330,0.0,3.0,69,-99.99,,,-99.99,,2013-03-29 11:03:00,
2013-03-29 04:12:00,40.0,30.0,-100.00,West,281,1.0,3.0,68,-99.99,,,-99.99,,2013-03-29 11:12:00,
2013-03-29 04:23:00,41.0,31.0,-100.00,WNW,288,1.0,3.0,67,-99.99,,,-99.99,,2013-03-29 11:23:00,
2013-03-29 04:32:00,40.0,31.0,-100.00,WSW,250,0.0,3.0,70,-99.99,,,-99.99,,2013-03-29 11:32:00,
2013-03-29 04:42:00,39.0,30.0,-100.00,NNE,20,0.0,1.0,70,-99.99,,,-99.99,,2013-03-29 11:42:00,
2013-03-29 04:52:00,39.0,30.0,-100.00,NE,38,1.0,3.0,69,-99.99,,,-99.99,,2013-03-29 11:52:00,
2013-03-29 05:02:00,39.0,30.0,-100.00,North,8,2.0,3.0,70,-99.99,,,-99.99,,2013-03-29 12:02:00,
2013-03-29 05:12:00,38.0,29.0,-100.00,SSW,198,0.0,2.0,71,-99.99,,,-99.99,,2013-03-29 12:12:00,
2013-03-29 05:22:00,39.0,31.0,-100.00,NW,318,0.0,1.0,72,-99.99,,,-99.99,,2013-03-29 12:22:00,
2013-03-29 05:32:00,39.0,30.0,-100.00,NW,326,0.0,1.0,71,-99.99,,,-99.99,,2013-03-29 12:32:00,
2013-03-29 05:42:00,38.0,30.0,-100.00,North,8,0.0,1.0,72,-99.99,,,-99.99,,2013-03-29 12:42:00,
2013-03-29 05:51:00,38.0,30.0,-100.00,SE,137,0.0,1.0,72,-99.99,,,-99.99,,2013-03-29 12:51:00,
2013-03-29 06:02:00,38.0,30.0,-100.00,South,186,0.0,1.0,72,-99.99,,,-99.99,,2013-03-29 13:02:00,
2013-03-29 06:12:00,38.0,29.0,-100.00,North,352,0.0,2.0,71,-99.99,,,-99.99,,2013-03-29 13:12:00,
2013-03-29 06:22:00,38.0,29.0,-100.00,NNE,18,0.0,1.0,71,-99.99,,,-99.99,,2013-03-29 13:22:00,
2013-03-29 06:32:00,38.0,30.0,-100.00,North,354,0.0,1.0,72,-99.99,,,-99.99,,2013-03-29 13:32:00,
2013-03-29 06:42:00,38.0,29.0,-100.00,NNW,342,0.0,2.0,71,-99.99,,,-99.99,,2013-03-29 13:42:00,
2013-03-29 06:52:00,37.0,29.0,-100.00,North,-999,0.0,0.0,72,-99.99,,,-99.99,,2013-03-29 13:52:00,
2013-03-29 07:02:00,37.0,29.0,-100.00,North,-999,0.0,0.0,73,-99.99,,,-99.99,,2013-03-29 14:02:00,
2013-03-29 07:12:00,37.0,29.0,-100.00,North,-999,0.0,0.0,74,-99.99,,,-99.99,,2013-03-29 14:12:00,
2013-03-29 07:22:00,38.0,30.0,-100.00,WSW,248,0.0,2.0,72,-99.99,,,-99.99,,2013-03-29 14:22:00,
2013-03-29 07:32:00,39.0,30.0,-100.00,SSW,198,0.0,2.0,70,-99.99,,,-99.99,,2013-03-29 14:32:00,
2013-03-29 07:42:00,39.0,30.0,-100.00,North,-999,0.0,0.0,70,-99.99,,,-99.99,,2013-03-29 14:42:00,
2013-03-29 07:52:00,40.0,30.0,-100.00,NNE,28,0.0,1.0,67,-99.99,,,-99.99,,2013-03-29 14:52:00,
2013-03-29 08:02:00,41.0,31.0,-100.00,NE,51,0.0,2.0,67,-99.99,,,-99.99,,2013-03-29 15:02:00,
2013-03-29 08:12:00,42.0,31.0,-100.00,SE,140,0.0,1.0,66,-99.99,,,-99.99,,2013-03-29 15:12:00,
2013-03-29 08:22:00,44.0,31.0,-100.00,North,-999,0.0,0.0,61,-99.99,,,-99.99,,2013-03-29 15:22:00,
2013-03-29 08:33:00,43.0,32.0,-100.00,SE,144,1.0,2.0,65,-99.99,,,-99.99,,2013-03-29 15:33:00,
2013-03-29 08:42:00,43.0,32.0,-100.00,SSE,161,1.0,3.0,64,-99.99,,,-99.99,,2013-03-29 15:42:00,
2013-03-29 08:52:00,44.0,32.0,-100.00,ESE,110,1.0,3.0,62,-99.99,,,-99.99,,2013-03-29 15:52:00,
2013-03-29 09:12:00,47.0,33.0,-100.00,East,82,1.0,4.0,57,-99.99,,,-99.99,,2013-03-29 16:12:00,
2013-03-29 09:23:00,46.0,32.0,-100.00,East,83,2.0,4.0,59,-99.99,,,-99.99,,2013-03-29 16:23:00,
2013-03-29 09:32:00,47.0,33.0,-100.00,East,99,2.0,4.0,58,-99.99,,,-99.99,,2013-03-29 16:32:00,
2013-03-29 09:42:00,46.0,33.0,-100.00,ESE,116,2.0,5.0,61,-99.99,,,-99.99,,2013-03-29 16:42:00,
2013-03-29 09:53:00,48.0,35.0,-100.00,SE,144,2.0,5.0,60,-99.99,,,-99.99,,2013-03-29 16:53:00,
2013-03-29 10:02:00,47.0,34.0,-100.00,SE,138,2.0,5.0,61,-99.99,,,-99.99,,2013-03-29 17:02:00,
2013-03-29 10:12:00,47.0,34.0,-100.00,SSE,147,3.0,7.0,61,-99.99,,,-99.99,,2013-03-29 17:12:00,
2013-03-29 10:22:00,49.0,34.0,-100.00,ESE,109,2.0,7.0,57,-99.99,,,-99.99,,2013-03-29 17:22:00,
2013-03-29 10:33:00,49.0,34.0,-100.00,SSE,158,2.0,6.0,55,-99.99,,,-99.99,,2013-03-29 17:33:00,
2013-03-29 10:42:00,50.0,33.0,-100.00,ENE,68,2.0,6.0,51,-99.99,,,-99.99,,2013-03-29 17:42:00,
2013-03-29 10:52:00,50.0,33.0,-100.00,SSE,155,3.0,8.0,51,-99.99,,,-99.99,,2013-03-29 17:52:00,
2013-03-29 11:02:00,49.0,34.0,-100.00,SSE,165,5.0,8.0,55,-99.99,,,-99.99,,2013-03-29 18:02:00,
2013-03-29 11:12:00,50.0,33.0,-100.00,South,189,4.0,10.0,51,-99.99,,,-99.99,,2013-03-29 18:12:00,
2013-03-29 11:22:00,52.0,31.0,-100.00,ESE,116,3.0,8.0,45,-99.99,,,-99.99,,2013-03-29 18:22:00,
2013-03-29 11:32:00,51.0,33.0,-100.00,ESE,117,3.0,9.0,49,-99.99,,,-99.99,,2013-03-29 18:32:00,
2013-03-29 11:42:00,53.0,32.0,-100.00,ESE,120,3.0,8.0,45,-99.99,,,-99.99,,2013-03-29 18:42:00,
2013-03-29 11:52:00,52.0,30.0,-100.00,SE,128,4.0,9.0,43,-99.99,,,-99.99,,2013-03-29 18:52:00,
2013-03-29 12:02:00,52.0,30.0,-100.00,SSW,192,4.0,12.0,43,-99.99,,,-99.99,,2013-03-29 19:02:00,
2013-03-29 12:12:00,54.0,31.0,-100.00,East,99,3.0,9.0,42,-99.99,,,-99.99,,2013-03-29 19:12:00,
2013-03-29 12:22:00,53.0,30.0,-100.00,SW,224,4.0,9.0,41,-99.99,,,-99.99,,2013-03-29 19:22:00,
2013-03-29 12:32:00,53.0,28.0,-100.00,SSW,195,4.0,9.0,38,-99.99,,,-99.99,,2013-03-29 19:32:00,
2013-03-29 12:42:00,55.0,30.0,-100.00,South,179,3.0,7.0,38,-99.99,,,-99.99,,2013-03-29 19:42:00,
2013-03-29 12:52:00,56.0,26.0,-100.00,ESE,103,3.0,9.0,31,-99.99,,,-99.99,,2013-03-29 19:52:00,
2013-03-29 13:02:00,57.0,26.0,-100.00,ESE,106,3.0,8.0,30,-99.99,,,-99.99,,2013-03-29 20:02:00,
2013-03-29 13:12:00,57.0,27.0,-100.00,SE,141,4.0,10.0,31,-99.99,,,-99.99,,2013-03-29 20:12:00,
2013-03-29 13:22:00,56.0,27.0,-100.00,SW,215,6.0,12.0,33,-99.99,,,-99.99,,2013-03-29 20:22:00,
2013-03-29 13:32:00,56.0,28.0,-100.00,South,178,5.0,10.0,34,-99.99,,,-99.99,,2013-03-29 20:32:00,
2013-03-29 13:42:00,57.0,27.0,-100.00,South,178,5.0,11.0,32,-99.99,,,-99.99,,2013-03-29 20:42:00,
2013-03-29 13:52:00,57.0,28.0,-100.00,SSE,165,4.0,9.0,33,-99.99,,,-99.99,,2013-03-29 20:52:00,
2013-03-29 14:02:00,58.0,28.0,-100.00,ESE,114,4.0,10.0,32,-99.99,,,-99.99,,2013-03-29 21:02:00,
2013-03-29 14:12:00,59.0,29.0,-100.00,ESE,113,4.0,9.0,32,-99.99,,,-99.99,,2013-03-29 21:12:00,
2013-03-29 14:22:00,60.0,28.0,-100.00,ESE,112,4.0,9.0,30,-99.99,,,-99.99,,2013-03-29 21:22:00,
2013-03-29 14:32:00,59.0,27.0,-100.00,SSW,213,4.0,10.0,29,-99.99,,,-99.99,,2013-03-29 21:32:00,
2013-03-29 14:42:00,59.0,26.0,-100.00,WSW,239,7.0,14.0,28,-99.99,,,-99.99,,2013-03-29 21:42:00,
2013-03-29 14:53:00,59.0,25.0,-100.00,SSW,203,6.0,14.0,27,-99.99,,,-99.99,,2013-03-29 21:53:00,
2013-03-29 15:03:00,60.0,26.0,-100.00,WSW,240,5.0,12.0,27,-99.99,,,-99.99,,2013-03-29 22:03:00,
2013-03-29 15:12:00,59.0,24.0,-100.00,WSW,254,8.0,17.0,26,-99.99,,,-99.99,,2013-03-29 22:12:00,
2013-03-29 15:22:00,59.0,24.0,-100.00,WSW,247,8.0,15.0,26,-99.99,,,-99.99,,2013-03-29 22:22:00,
2013-03-29 15:33:00,59.0,23.0,-100.00,West,268,8.0,20.0,25,-99.99,,,-99.99,,2013-03-29 22:33:00,
2013-03-29 15:42:00,60.0,24.0,-100.00,West,270,7.0,15.0,25,-99.99,,,-99.99,,2013-03-29 22:42:00,
2013-03-29 15:52:00,60.0,23.0,-100.00,WSW,254,6.0,15.0,24,-99.99,,,-99.99,,2013-03-29 22:52:00,
2013-03-29 16:02:00,60.0,24.0,-100.00,SW,234,6.0,17.0,25,-99.99,,,-99.99,,2013-03-29 23:02:00,
2013-03-29 16:12:00,60.0,24.0,-100.00,SW,220,7.0,14.0,25,-99.99,,,-99.99,,2013-03-29 23:12:00,
2013-03-29 16:22:00,60.0,23.0,-100.00,SW,226,6.0,14.0,24,-99.99,,,-99.99,,2013-03-29 23:22:00,
2013-03-29 16:32:00,60.0,24.0,-100.00,SW,229,7.0,16.0,25,-99.99,,,-99.99,,2013-03-29 23:32:00,
2013-03-29 16:42:00,60.0,25.0,-100.00,SW,232,8.0,15.0,26,-99.99,,,-99.99,,2013-03-29 23:42:00,
2013-03-29 16:52:00,59.0,23.0,-100.00,SW,224,9.0,18.0,25,-99.99,,,-99.99,,2013-03-29 23:52:00,
2013-03-29 17:02:00,60.0,24.0,-100.00,SW,219,7.0,16.0,25,-99.99,,,-99.99,,2013-03-30 00:02:00,
2013-03-29 17:11:00,61.0,24.0,-100.00,SSW,213,6.0,14.0,24,-99.99,,,-99.99,,2013-03-30 00:11:00,
2013-03-29 17:22:00,60.0,24.0,-100.00,SW,229,6.0,13.0,25,-99.99,,,-99.99,,2013-03-30 00:22:00,
2013-03-29 17:32:00,60.0,23.0,-100.00,SW,233,7.0,17.0,24,-99.99,,,-99.99,,2013-03-30 00:32:00,
2013-03-29 17:42:00,60.0,24.0,-100.00,SW,223,8.0,14.0,25,-99.99,,,-99.99,,2013-03-30 00:42:00,
2013-03-29 17:52:00,60.0,25.0,-100.00,SW,220,8.0,16.0,26,-99.99,,,-99.99,,2013-03-30 00:52:00,
2013-03-29 18:02:00,59.0,24.0,-100.00,SW,236,7.0,15.0,26,-99.99,,,-99.99,,2013-03-30 01:02:00,
2013-03-29 18:12:00,59.0,25.0,-100.00,WSW,237,8.0,15.0,27,-99.99,,,-99.99,,2013-03-30 01:12:00,
2013-03-29 18:22:00,59.0,25.0,-100.00,SW,232,7.0,15.0,27,-99.99,,,-99.99,,2013-03-30 01:22:00,
2013-03-29 18:32:00,59.0,25.0,-100.00,SW,233,7.0,16.0,27,-99.99,,,-99.99,,2013-03-30 01:32:00,
2013-03-29 18:42:00,58.0,25.0,-100.00,SW,224,7.0,13.0,28,-99.99,,,-99.99,,2013-03-30 01:42:00,
2013-03-29 18:52:00,58.0,25.0,-100.00,SW,234,6.0,13.0,28,-99.99,,,-99.99,,2013-03-30 01:52:00,
2013-03-29 19:02:00,57.0,26.0,-100.00,WSW,253,5.0,11.0,30,-99.99,,,-99.99,,2013-03-30 02:02:00,
2013-03-29 19:12:00,56.0,25.0,-100.00,WSW,258,6.0,11.0,30,-99.99,,,-99.99,,2013-03-30 02:12:00,
2013-03-29 19:22:00,56.0,26.0,-100.00,WSW,253,6.0,12.0,31,-99.99,,,-99.99,,2013-03-30 02:22:00,
2013-03-29 19:32:00,56.0,26.0,-100.00,WSW,254,7.0,11.0,31,-99.99,,,-99.99,,2013-03-30 02:32:00,
2013-03-29 19:42:00,56.0,26.0,-100.00,West,277,7.0,11.0,31,-99.99,,,-99.99,,2013-03-30 02:42:00,
2013-03-29 19:52:00,56.0,26.0,-100.00,West,275,6.0,11.0,31,-99.99,,,-99.99,,2013-03-30 02:52:00,
2013-03-29 20:02:00,56.0,26.0,-100.00,West,265,7.0,13.0,31,-99.99,,,-99.99,,2013-03-30 03:02:00,
2013-03-29 20:12:00,55.0,25.0,-100.00,West,260,7.0,13.0,31,-99.99,,,-99.99,,2013-03-30 03:12:00,
2013-03-29 20:22:00,55.0,25.0,-100.00,West,260,7.0,13.0,31,-99.99,,,-99.99,,2013-03-30 03:22:00,
2013-03-29 20:33:00,55.0,25.0,-100.00,West,260,7.0,13.0,31,-99.99,,,-99.99,,2013-03-30 03:33:00,
2013-03-29 20:52:00,53.0,26.0,-100.00,WSW,246,7.0,11.0,35,-99.99,,,-99.99,,2013-03-30 03:52:00,
2013-03-29 21:02:00,55.0,26.0,-100.00,West,272,7.0,12.0,33,-99.99,,,-99.99,,2013-03-30 04:02:00,
2013-03-29 21:12:00,55.0,26.0,-100.00,West,268,4.0,9.0,32,-99.99,,,-99.99,,2013-03-30 04:12:00,
2013-03-29 21:23:00,54.0,26.0,-100.00,WNW,288,3.0,6.0,33,-99.99,,,-99.99,,2013-03-30 04:23:00,
2013-03-29 21:32:00,51.0,27.0,-100.00,NNW,346,3.0,7.0,39,-99.99,,,-99.99,,2013-03-30 04:32:00,
2013-03-29 21:42:00,52.0,28.0,-100.00,NW,312,2.0,5.0,39,-99.99,,,-99.99,,2013-03-30 04:42:00,
2013-03-29 21:52:00,51.0,27.0,-100.00,WSW,244,2.0,4.0,39,-99.99,,,-99.99,,2013-03-30 04:52:00,
2013-03-29 22:02:00,52.0,27.0,-100.00,WSW,250,2.0,5.0,38,-99.99,,,-99.99,,2013-03-30 05:02:00,
2013-03-29 22:12:00,51.0,28.0,-100.00,West,263,1.0,3.0,40,-99.99,,,-99.99,,2013-03-30 05:12:00,
2013-03-29 22:22:00,50.0,27.0,-100.00,North,4,0.0,1.0,41,-99.99,,,-99.99,,2013-03-30 05:22:00,
2013-03-29 22:32:00,50.0,27.0,-100.00,SE,127,0.0,1.0,41,-99.99,,,-99.99,,2013-03-30 05:32:00,
2013-03-29 22:42:00,52.0,28.0,-100.00,West,275,3.0,5.0,40,-99.99,,,-99.99,,2013-03-30 05:42:00,
2013-03-29 22:52:00,51.0,28.0,-100.00,WNW,289,2.0,4.0,41,-99.99,,,-99.99,,2013-03-30 05:52:00,
2013-03-29 23:02:00,49.0,28.0,-100.00,North,349,2.0,5.0,44,-99.99,,,-99.99,,2013-03-30 06:02:00,
2013-03-29 23:11:00,51.0,29.0,-100.00,North,350,3.0,5.0,43,-99.99,,,-99.99,,2013-03-30 06:11:00,
2013-03-29 23:22:00,50.0,29.0,-100.00,NNW,339,2.0,5.0,44,-99.99,,,-99.99,,2013-03-30 06:22:00,
2013-03-29 23:32:00,49.0,29.0,-100.00,West,270,1.0,3.0,45,-99.99,,,-99.99,,2013-03-30 06:32:00,
2013-03-29 23:42:00,49.0,29.0,-100.00,South,182,0.0,1.0,46,-99.99,,,-99.99,,2013-03-30 06:42:00,
2013-03-29 23:52:00,49.0,28.0,-100.00,ESE,110,0.0,2.0,44,-99.99,,,-99.99,,2013-03-30 06:52:00,